createdAt,value
2022-08-26T14:54:13.824Z,13.57
2022-08-26T14:57:17.347Z,13.58
2022-08-26T15:00:20.646Z,13.63
2022-08-26T15:03:24.346Z,13.68
2022-08-26T15:06:31.545Z,13.75
2022-08-26T15:09:38.327Z,13.78
2022-08-26T15:12:42.141Z,13.81
2022-08-26T15:15:46.031Z,13.80
2022-08-26T15:18:49.975Z,13.79
2022-08-26T15:21:54.082Z,13.80
2022-08-26T15:24:59.300Z,13.85
2022-08-26T15:28:03.126Z,13.91
2022-08-26T15:31:07.391Z,13.93
2022-08-26T15:34:16.353Z,13.94
2022-08-26T15:37:20.234Z,13.90
2022-08-26T15:40:23.303Z,13.85
2022-08-26T15:43:29.027Z,13.81
2022-08-26T15:46:34.044Z,13.76
2022-08-26T15:49:57.005Z,13.70
2022-08-26T15:53:01.982Z,13.63
2022-08-26T15:56:06.745Z,13.57
2022-08-26T15:59:12.196Z,13.54
2022-08-26T16:02:15.748Z,13.51
2022-08-26T16:05:19.663Z,13.44
2022-08-26T16:08:23.427Z,13.33
2022-08-26T16:11:27.210Z,13.22
2022-08-26T16:14:31.461Z,13.19
2022-08-26T16:17:35.187Z,13.20
2022-08-26T16:20:51.457Z,13.21
2022-08-26T16:24:10.494Z,13.19
2022-08-26T16:27:14.668Z,13.18
2022-08-26T16:30:17.651Z,13.10
2022-08-26T16:33:29.127Z,13.08
2022-08-26T16:36:33.021Z,13.12
2022-08-26T16:39:44.907Z,13.20
2022-08-26T16:42:48.469Z,13.27
2022-08-26T16:45:52.753Z,13.37
2022-08-26T16:48:57.933Z,13.40
2022-08-26T16:52:01.945Z,13.40
2022-08-26T16:55:11.108Z,13.40
2022-08-26T16:58:15.710Z,13.34
2022-08-26T17:01:19.842Z,13.28
2022-08-26T17:04:24.120Z,13.22
2022-08-26T17:07:27.932Z,13.18
2022-08-26T17:10:32.263Z,13.11
2022-08-26T17:13:36.948Z,13.09
2022-08-26T17:16:40.763Z,13.08
2022-08-26T17:19:47.208Z,13.06
2022-08-26T17:22:52.105Z,13.06
2022-08-26T17:25:55.247Z,13.03
2022-08-26T17:28:59.021Z,12.99
2022-08-26T17:32:02.092Z,12.97
2022-08-26T17:35:06.206Z,12.97
2022-08-26T17:38:10.143Z,12.95
2022-08-26T17:41:15.476Z,12.95
2022-08-26T18:26:29.494Z,11.80
2022-08-26T18:29:33.897Z,11.76
2022-08-26T18:32:37.643Z,11.68
2022-08-26T18:35:43.122Z,11.67
2022-08-26T18:38:50.442Z,11.76
2022-08-26T18:41:54.641Z,11.77
2022-08-26T18:44:58.384Z,11.82
2022-08-26T18:48:03.601Z,11.82
2022-08-26T18:51:07.511Z,11.80
2022-08-26T18:54:16.568Z,11.74
2022-08-26T18:57:20.282Z,11.70
2022-08-26T19:00:24.078Z,11.65
2022-08-26T19:03:29.212Z,11.65
2022-08-26T19:06:36.448Z,11.68
2022-08-26T19:09:40.028Z,11.69
2022-08-26T19:12:46.143Z,11.72
2022-08-26T19:15:55.863Z,11.75
2022-08-26T19:19:01.816Z,11.77
2022-08-26T19:22:06.106Z,11.78
2022-08-26T19:25:11.742Z,11.75
2022-08-26T19:28:16.712Z,11.72
2022-08-26T19:31:21.234Z,11.65
2022-08-26T19:34:25.261Z,11.56
2022-08-26T19:37:29.295Z,11.54
2022-08-26T19:40:35.416Z,11.41
2022-08-26T19:43:38.795Z,11.29
2022-08-26T19:46:44.022Z,11.13
2022-08-26T19:49:48.009Z,11.07
2022-08-26T19:52:52.028Z,11.07
2022-08-26T19:55:57.156Z,10.94
2022-08-26T19:59:00.690Z,10.84
2022-08-26T20:02:11.077Z,10.80
2022-08-26T20:05:16.567Z,10.75
2022-08-26T20:08:22.845Z,10.67
2022-08-26T20:11:26.037Z,10.58
2022-08-26T20:14:30.981Z,10.65
2022-08-26T20:17:34.717Z,10.68
2022-08-26T20:20:56.307Z,10.67
2022-08-26T20:24:13.531Z,10.65
2022-08-26T20:27:18.773Z,10.57
2022-08-26T20:30:22.645Z,10.51
2022-08-26T20:33:26.682Z,10.46
2022-08-26T20:36:30.758Z,10.36
2022-08-26T20:39:34.908Z,10.27
2022-08-26T20:42:38.898Z,10.20
2022-08-26T20:45:42.396Z,10.09
2022-08-26T20:48:46.332Z,10.10
2022-08-26T20:51:53.565Z,10.08
2022-08-26T20:54:57.725Z,10.04
2022-08-26T20:58:01.978Z,10.09
2022-08-26T21:01:08.204Z,10.08
2022-08-26T21:04:15.066Z,9.98
2022-08-26T21:07:18.052Z,9.86
2022-08-26T21:10:23.210Z,9.76
2022-08-26T21:13:29.046Z,9.71
2022-08-26T21:16:41.918Z,9.70
2022-08-26T21:19:45.689Z,9.67
2022-08-26T21:22:49.830Z,9.63
2022-08-26T21:25:53.550Z,9.56
2022-08-26T21:28:57.211Z,9.56
2022-08-26T21:32:01.148Z,9.47
2022-08-26T21:35:05.087Z,9.45
2022-08-26T21:38:09.294Z,9.48
2022-08-26T21:41:22.859Z,9.48
2022-08-26T21:44:26.683Z,9.43
2022-08-26T21:47:33.523Z,9.40
2022-08-26T21:50:39.627Z,9.39
2022-08-26T21:53:43.988Z,9.32
2022-08-26T21:56:48.214Z,9.40
2022-08-26T21:59:53.429Z,9.38
2022-08-26T22:03:01.296Z,9.44
2022-08-26T22:06:05.251Z,9.41
2022-08-26T22:09:10.221Z,9.40
2022-08-26T22:12:17.426Z,9.35
2022-08-26T22:15:23.874Z,9.34
2022-08-26T22:18:28.968Z,9.32
2022-08-26T22:21:33.210Z,9.33
2022-08-26T22:24:36.753Z,9.33
2022-08-26T22:27:42.748Z,9.32
2022-08-26T22:30:47.696Z,9.33
2022-08-26T22:33:51.880Z,9.26
2022-08-26T22:36:56.234Z,9.29
2022-08-26T22:39:59.641Z,9.25
2022-08-26T22:43:05.193Z,9.21
2022-08-26T22:46:10.438Z,9.26
2022-08-26T22:49:18.086Z,9.30
2022-08-26T22:52:21.541Z,9.28
2022-08-26T22:55:25.005Z,9.32
2022-08-26T22:58:30.790Z,9.35
2022-08-26T23:01:36.714Z,9.35
2022-08-26T23:04:40.511Z,9.38
2022-08-26T23:07:43.832Z,9.54
2022-08-26T23:10:48.661Z,9.63
2022-08-26T23:13:52.309Z,9.86
2022-08-26T23:16:55.581Z,13.15
